sensor_id;sensor_type;location;lat;lon;timestamp;pressure;altitude;pressure_sealevel;temperature;humidity
60244;BME280;46106;51.468;5.814;2023-05-08T18:40:07;101612.16;;;18.25;100.00
60244;BME280;46106;51.468;5.814;2023-05-08T18:42:33;101619.13;;;18.29;100.00
60244;BME280;46106;51.468;5.814;2023-05-08T18:44:58;101608.91;;;18.30;100.00
60244;BME280;46106;51.468;5.814;2023-05-08T18:47:25;101605.56;;;18.26;100.00
60244;BME280;46106;51.468;5.814;2023-05-08T18:49:50;101605.72;;;18.25;100.00
60244;BME280;46106;51.468;5.814;2023-05-08T18:52:20;101604.88;;;18.24;100.00
60244;BME280;46106;51.468;5.814;2023-05-08T18:54:46;101600.72;;;18.10;100.00
60244;BME280;46106;51.468;5.814;2023-05-08T18:57:11;101595.31;;;18.09;100.00
60244;BME280;46106;51.468;5.814;2023-05-08T18:59:37;101595.47;;;18.07;100.00
60244;BME280;46106;51.468;5.814;2023-05-08T19:02:02;101588.47;;;18.03;100.00
60244;BME280;46106;51.468;5.814;2023-05-08T19:04:28;101587.47;;;18.04;100.00
60244;BME280;46106;51.468;5.814;2023-05-08T19:06:53;101578.13;;;17.95;100.00
60244;BME280;46106;51.468;5.814;2023-05-08T19:09:19;101575.72;;;17.82;100.00
60244;BME280;46106;51.468;5.814;2023-05-08T19:11:45;101569.00;;;17.75;100.00
60244;BME280;46106;51.468;5.814;2023-05-08T19:14:10;101566.78;;;17.79;100.00
60244;BME280;46106;51.468;5.814;2023-05-08T19:16:36;101571.63;;;17.77;100.00
60244;BME280;46106;51.468;5.814;2023-05-08T19:19:01;101562.81;;;17.54;100.00
60244;BME280;46106;51.468;5.814;2023-05-08T19:21:27;101566.31;;;17.36;100.00
60244;BME280;46106;51.468;5.814;2023-05-08T19:23:52;101578.03;;;17.30;100.00
60244;BME280;46106;51.468;5.814;2023-05-08T19:26:18;101572.19;;;17.33;100.00
60244;BME280;46106;51.468;5.814;2023-05-08T19:28:43;101570.84;;;17.37;100.00
60244;BME280;46106;51.468;5.814;2023-05-08T19:31:08;101573.34;;;17.31;100.00
60244;BME280;46106;51.468;5.814;2023-05-08T19:33:34;101554.84;;;17.31;100.00
60244;BME280;46106;51.468;5.814;2023-05-08T19:35:59;101566.94;;;17.30;100.00
60244;BME280;46106;51.468;5.814;2023-05-08T19:38:25;101583.97;;;17.35;100.00
60244;BME280;46106;51.468;5.814;2023-05-08T19:40:50;101573.94;;;17.15;100.00
60244;BME280;46106;51.468;5.814;2023-05-08T19:43:16;101589.09;;;17.20;100.00
60244;BME280;46106;51.468;5.814;2023-05-08T19:45:43;101591.59;;;17.14;100.00
60244;BME280;46106;51.468;5.814;2023-05-08T19:48:08;101594.34;;;17.23;100.00
60244;BME280;46106;51.468;5.814;2023-05-08T19:50:34;101597.25;;;17.32;100.00
60244;BME280;46106;51.468;5.814;2023-05-08T19:52:59;101585.56;;;17.28;100.00
60244;BME280;46106;51.468;5.814;2023-05-08T19:55:25;101598.97;;;17.33;100.00
60244;BME280;46106;51.468;5.814;2023-05-08T19:57:50;101595.94;;;17.26;100.00
60244;BME280;46106;51.468;5.814;2023-05-08T20:00:16;101600.16;;;17.20;100.00
60244;BME280;46106;51.468;5.814;2023-05-08T20:02:42;101591.72;;;17.12;100.00
60244;BME280;46106;51.468;5.814;2023-05-08T20:05:08;101606.44;;;17.22;100.00
60244;BME280;46106;51.468;5.814;2023-05-08T20:07:33;101602.94;;;17.20;100.00
60244;BME280;46106;51.468;5.814;2023-05-08T20:09:59;101602.19;;;17.18;100.00
60244;BME280;46106;51.468;5.814;2023-05-08T20:12:25;101596.38;;;17.12;100.00
60244;BME280;46106;51.468;5.814;2023-05-08T20:14:51;101597.41;;;17.11;100.00
60244;BME280;46106;51.468;5.814;2023-05-08T20:17:17;101595.34;;;17.13;100.00
60244;BME280;46106;51.468;5.814;2023-05-08T20:19:43;101596.66;;;17.18;100.00
60244;BME280;46106;51.468;5.814;2023-05-08T20:22:08;101594.50;;;17.02;100.00
60244;BME280;46106;51.468;5.814;2023-05-08T20:24:35;101593.59;;;17.02;100.00
60244;BME280;46106;51.468;5.814;2023-05-08T20:27:00;101592.88;;;17.00;100.00
60244;BME280;46106;51.468;5.814;2023-05-08T20:29:26;101587.78;;;16.95;100.00
60244;BME280;46106;51.468;5.814;2023-05-08T20:31:52;101599.31;;;16.90;100.00
60244;BME280;46106;51.468;5.814;2023-05-08T20:34:18;101602.22;;;16.89;100.00
60244;BME280;46106;51.468;5.814;2023-05-08T20:36:43;101599.44;;;16.89;100.00
60244;BME280;46106;51.468;5.814;2023-05-08T20:39:10;101604.47;;;16.84;100.00
60244;BME280;46106;51.468;5.814;2023-05-08T20:41:36;101604.78;;;16.81;100.00
60244;BME280;46106;51.468;5.814;2023-05-08T20:44:01;101581.34;;;16.75;100.00
60244;BME280;46106;51.468;5.814;2023-05-08T20:46:27;101600.03;;;16.93;100.00
60244;BME280;46106;51.468;5.814;2023-05-08T20:48:52;101596.97;;;16.86;100.00
60244;BME280;46106;51.468;5.814;2023-05-08T20:51:18;101593.84;;;16.69;100.00
60244;BME280;46106;51.468;5.814;2023-05-08T20:53:43;101591.81;;;16.71;100.00
60244;BME280;46106;51.468;5.814;2023-05-08T20:56:09;101592.53;;;16.64;100.00
60244;BME280;46106;51.468;5.814;2023-05-08T20:58:34;101572.72;;;16.49;100.00
60244;BME280;46106;51.468;5.814;2023-05-08T21:01:00;101597.47;;;16.60;100.00
60244;BME280;46106;51.468;5.814;2023-05-08T21:03:25;101593.69;;;16.61;100.00
60244;BME280;46106;51.468;5.814;2023-05-08T21:05:53;101597.63;;;16.59;100.00
60244;BME280;46106;51.468;5.814;2023-05-08T21:08:22;101587.41;;;16.59;100.00
60244;BME280;46106;51.468;5.814;2023-05-08T21:10:49;101595.72;;;16.59;100.00
60244;BME280;46106;51.468;5.814;2023-05-08T21:13:16;101588.88;;;16.53;100.00
60244;BME280;46106;51.468;5.814;2023-05-08T21:15:41;101591.63;;;16.53;100.00
60244;BME280;46106;51.468;5.814;2023-05-08T21:18:07;101590.91;;;16.51;100.00
60244;BME280;46106;51.468;5.814;2023-05-08T21:20:32;101584.22;;;16.54;100.00
60244;BME280;46106;51.468;5.814;2023-05-08T21:22:58;101591.91;;;16.50;100.00
60244;BME280;46106;51.468;5.814;2023-05-08T21:25:24;101592.06;;;16.49;100.00
60244;BME280;46106;51.468;5.814;2023-05-08T21:27:49;101588.00;;;16.53;100.00
60244;BME280;46106;51.468;5.814;2023-05-08T21:30:15;101590.16;;;16.49;100.00
60244;BME280;46106;51.468;5.814;2023-05-08T21:32:44;101583.88;;;16.38;100.00
60244;BME280;46106;51.468;5.814;2023-05-08T21:35:10;101588.84;;;16.44;100.00
60244;BME280;46106;51.468;5.814;2023-05-08T21:37:37;101592.19;;;16.38;100.00
60244;BME280;46106;51.468;5.814;2023-05-08T21:40:03;101588.97;;;16.32;100.00
60244;BME280;46106;51.468;5.814;2023-05-08T21:42:30;101584.16;;;16.34;100.00
60244;BME280;46106;51.468;5.814;2023-05-08T21:44:56;101571.91;;;16.17;100.00
60244;BME280;46106;51.468;5.814;2023-05-08T21:47:22;101566.66;;;16.14;100.00
60244;BME280;46106;51.468;5.814;2023-05-08T21:49:51;101575.09;;;16.13;100.00
60244;BME280;46106;51.468;5.814;2023-05-08T21:52:18;101564.00;;;16.03;100.00
60244;BME280;46106;51.468;5.814;2023-05-08T21:54:50;101564.84;;;15.94;100.00
60244;BME280;46106;51.468;5.814;2023-05-08T21:57:15;101564.72;;;15.95;100.00
60244;BME280;46106;51.468;5.814;2023-05-08T21:59:41;101557.44;;;15.94;100.00
60244;BME280;46106;51.468;5.814;2023-05-08T22:02:06;101567.00;;;15.90;100.00
60244;BME280;46106;51.468;5.814;2023-05-08T22:04:32;101556.94;;;15.79;100.00
60244;BME280;46106;51.468;5.814;2023-05-08T22:06:57;101575.09;;;15.82;100.00
60244;BME280;46106;51.468;5.814;2023-05-08T22:09:23;101559.59;;;15.91;100.00
60244;BME280;46106;51.468;5.814;2023-05-08T22:11:49;101568.31;;;15.86;100.00
60244;BME280;46106;51.468;5.814;2023-05-08T22:14:15;101558.25;;;15.85;100.00
60244;BME280;46106;51.468;5.814;2023-05-08T22:16:40;101565.59;;;15.75;100.00
60244;BME280;46106;51.468;5.814;2023-05-08T22:19:09;101562.47;;;15.79;100.00
60244;BME280;46106;51.468;5.814;2023-05-08T22:21:35;101566.28;;;15.88;100.00
60244;BME280;46106;51.468;5.814;2023-05-08T22:24:01;101561.16;;;15.84;100.00
60244;BME280;46106;51.468;5.814;2023-05-08T22:26:26;101547.28;;;15.74;100.00
60244;BME280;46106;51.468;5.814;2023-05-08T22:28:54;101545.75;;;15.81;100.00
60244;BME280;46106;51.468;5.814;2023-05-08T22:31:20;101553.31;;;15.79;100.00
60244;BME280;46106;51.468;5.814;2023-05-08T22:33:45;101556.00;;;15.69;100.00
60244;BME280;46106;51.468;5.814;2023-05-08T22:36:11;101543.06;;;15.70;100.00
60244;BME280;46106;51.468;5.814;2023-05-08T22:38:38;101545.94;;;15.68;100.00
60244;BME280;46106;51.468;5.814;2023-05-08T22:41:04;101541.09;;;15.60;100.00
60244;BME280;46106;51.468;5.814;2023-05-08T22:43:30;101520.19;;;15.58;100.00
60244;BME280;46106;51.468;5.814;2023-05-08T22:45:56;101529.88;;;15.52;100.00
60244;BME280;46106;51.468;5.814;2023-05-08T22:48:22;101526.72;;;15.57;100.00
60244;BME280;46106;51.468;5.814;2023-05-08T22:50:48;101522.31;;;15.54;100.00
60244;BME280;46106;51.468;5.814;2023-05-08T22:53:13;101513.31;;;15.52;100.00
60244;BME280;46106;51.468;5.814;2023-05-08T22:55:39;101503.97;;;15.43;100.00
60244;BME280;46106;51.468;5.814;2023-05-08T22:58:05;101516.22;;;15.51;100.00
60244;BME280;46106;51.468;5.814;2023-05-08T23:00:31;101512.72;;;15.49;100.00
60244;BME280;46106;51.468;5.814;2023-05-08T23:02:58;101510.09;;;15.47;100.00
60244;BME280;46106;51.468;5.814;2023-05-08T23:05:24;101514.63;;;15.48;100.00
60244;BME280;46106;51.468;5.814;2023-05-08T23:07:49;101507.59;;;15.44;100.00
60244;BME280;46106;51.468;5.814;2023-05-08T23:10:15;101502.63;;;15.38;100.00
60244;BME280;46106;51.468;5.814;2023-05-08T23:12:41;101506.28;;;15.38;100.00
60244;BME280;46106;51.468;5.814;2023-05-08T23:15:07;101514.63;;;15.48;100.00
60244;BME280;46106;51.468;5.814;2023-05-08T23:17:32;101511.91;;;15.58;100.00
60244;BME280;46106;51.468;5.814;2023-05-08T23:19:58;101496.03;;;15.50;100.00
60244;BME280;46106;51.468;5.814;2023-05-08T23:22:23;101496.16;;;15.49;100.00
60244;BME280;46106;51.468;5.814;2023-05-08T23:24:49;101490.78;;;15.47;100.00
60244;BME280;46106;51.468;5.814;2023-05-08T23:27:14;101473.56;;;15.34;100.00
60244;BME280;46106;51.468;5.814;2023-05-08T23:29:40;101486.88;;;15.50;100.00
60244;BME280;46106;51.468;5.814;2023-05-08T23:32:05;101475.84;;;15.50;100.00
60244;BME280;46106;51.468;5.814;2023-05-08T23:34:31;101477.44;;;15.52;100.00
60244;BME280;46106;51.468;5.814;2023-05-08T23:36:56;101478.59;;;15.50;100.00
60244;BME280;46106;51.468;5.814;2023-05-08T23:39:22;101468.75;;;15.57;100.00
60244;BME280;46106;51.468;5.814;2023-05-08T23:41:47;101470.78;;;15.55;100.00
60244;BME280;46106;51.468;5.814;2023-05-08T23:44:14;101471.47;;;15.47;100.00
60244;BME280;46106;51.468;5.814;2023-05-08T23:46:39;101467.06;;;15.44;100.00
60244;BME280;46106;51.468;5.814;2023-05-08T23:49:06;101458.34;;;15.39;100.00
60244;BME280;46106;51.468;5.814;2023-05-08T23:51:32;101466.31;;;15.33;100.00
60244;BME280;46106;51.468;5.814;2023-05-08T23:53:59;101454.25;;;15.34;100.00
60244;BME280;46106;51.468;5.814;2023-05-08T23:56:24;101442.06;;;15.36;100.00
60244;BME280;46106;51.468;5.814;2023-05-08T23:58:51;101430.56;;;15.31;100.00
